Аэропорт: Сокол. Магадан

ICAO: UHMM

METAR:
2020-08-12 05:30:00
UHMM 120530Z 10006MPS 9999 -SHRA SCT012 OVC022CB 12/11 Q1000 R10/290550 NOSIG RMK MT OBSC QFE735 R28/13005MPS
METAR:
2020-08-12 04:49:00
TAF UHMM 120449Z 1206/1312 10005G11MPS 3100 -SHRA BKN011 OVC015CB TEMPO 1206/1210 1500 SHRA BR VV009 FM121000 13005G11MPS 4000 -SHRA BR SCT006 OVC011CB TEMPO 1210/1224 0800 +SHRA FG VV004 FM130300 30003G10MPS 9999 -SHRA SCT011 OVC020CB TEMPO 1303/1312 3100 -SHRA BR